sensor_id;sensor_type;location;lat;lon;timestamp;P1;durP1;ratioP1;P2;durP2;ratioP2
44662;SDS011;30381;52.754;18.258;2022-10-28T00:01:10;63.00;;;31.97;;
44662;SDS011;30381;52.754;18.258;2022-10-28T00:03:40;70.70;;;32.00;;
44662;SDS011;30381;52.754;18.258;2022-10-28T00:06:16;56.37;;;30.75;;
44662;SDS011;30381;52.754;18.258;2022-10-28T00:08:46;84.75;;;31.20;;
44662;SDS011;30381;52.754;18.258;2022-10-28T00:13:46;79.22;;;29.60;;
44662;SDS011;30381;52.754;18.258;2022-10-28T00:16:14;58.08;;;27.65;;
44662;SDS011;30381;52.754;18.258;2022-10-28T00:18:50;61.40;;;28.15;;
44662;SDS011;30381;52.754;18.258;2022-10-28T00:21:22;65.92;;;27.05;;
44662;SDS011;30381;52.754;18.258;2022-10-28T00:23:51;57.43;;;27.77;;
44662;SDS011;30381;52.754;18.258;2022-10-28T00:26:19;46.88;;;27.17;;
44662;SDS011;30381;52.754;18.258;2022-10-28T00:28:50;52.55;;;28.35;;
44662;SDS011;30381;52.754;18.258;2022-10-28T00:31:21;54.93;;;29.18;;
44662;SDS011;30381;52.754;18.258;2022-10-28T00:33:50;52.38;;;26.60;;
44662;SDS011;30381;52.754;18.258;2022-10-28T00:36:25;50.25;;;26.12;;
44662;SDS011;30381;52.754;18.258;2022-10-28T00:38:56;52.58;;;26.93;;
44662;SDS011;30381;52.754;18.258;2022-10-28T00:41:25;57.15;;;28.27;;
44662;SDS011;30381;52.754;18.258;2022-10-28T00:43:56;55.23;;;27.55;;
44662;SDS011;30381;52.754;18.258;2022-10-28T00:49:27;68.47;;;29.52;;
44662;SDS011;30381;52.754;18.258;2022-10-28T00:51:56;63.28;;;33.53;;
44662;SDS011;30381;52.754;18.258;2022-10-28T00:54:26;65.63;;;35.57;;
44662;SDS011;30381;52.754;18.258;2022-10-28T00:56:54;63.58;;;35.58;;
44662;SDS011;30381;52.754;18.258;2022-10-28T00:59:28;62.98;;;35.88;;
44662;SDS011;30381;52.754;18.258;2022-10-28T01:01:55;76.12;;;36.95;;
44662;SDS011;30381;52.754;18.258;2022-10-28T01:04:21;73.80;;;38.45;;
44662;SDS011;30381;52.754;18.258;2022-10-28T01:06:48;74.12;;;36.90;;
44662;SDS011;30381;52.754;18.258;2022-10-28T01:09:15;57.70;;;33.42;;
44662;SDS011;30381;52.754;18.258;2022-10-28T01:17:49;48.45;;;29.87;;
44662;SDS011;30381;52.754;18.258;2022-10-28T01:20:43;43.95;;;26.50;;
44662;SDS011;30381;52.754;18.258;2022-10-28T01:23:22;42.25;;;26.27;;
44662;SDS011;30381;52.754;18.258;2022-10-28T01:34:20;44.30;;;26.57;;
44662;SDS011;30381;52.754;18.258;2022-10-28T01:39:58;56.63;;;28.73;;
44662;SDS011;30381;52.754;18.258;2022-10-28T01:42:40;53.05;;;29.50;;
44662;SDS011;30381;52.754;18.258;2022-10-28T01:45:32;50.60;;;30.75;;
44662;SDS011;30381;52.754;18.258;2022-10-28T01:48:00;52.20;;;30.15;;
44662;SDS011;30381;52.754;18.258;2022-10-28T01:50:44;61.25;;;29.92;;
44662;SDS011;30381;52.754;18.258;2022-10-28T01:53:25;51.83;;;31.45;;
44662;SDS011;30381;52.754;18.258;2022-10-28T01:55:57;56.15;;;32.35;;
44662;SDS011;30381;52.754;18.258;2022-10-28T01:58:28;77.53;;;36.05;;
44662;SDS011;30381;52.754;18.258;2022-10-28T02:00:58;66.80;;;36.40;;
44662;SDS011;30381;52.754;18.258;2022-10-28T02:03:27;89.13;;;38.53;;
44662;SDS011;30381;52.754;18.258;2022-10-28T02:05:54;76.07;;;39.88;;
44662;SDS011;30381;52.754;18.258;2022-10-28T02:08:27;80.15;;;38.02;;
44662;SDS011;30381;52.754;18.258;2022-10-28T02:13:57;56.95;;;31.80;;
44662;SDS011;30381;52.754;18.258;2022-10-28T02:17:09;47.38;;;30.52;;
44662;SDS011;30381;52.754;18.258;2022-10-28T02:19:38;52.67;;;30.90;;
44662;SDS011;30381;52.754;18.258;2022-10-28T02:25:16;45.15;;;29.65;;
44662;SDS011;30381;52.754;18.258;2022-10-28T02:28:04;48.87;;;30.27;;
44662;SDS011;30381;52.754;18.258;2022-10-28T02:30:44;43.25;;;28.80;;
44662;SDS011;30381;52.754;18.258;2022-10-28T02:33:18;59.50;;;29.32;;
44662;SDS011;30381;52.754;18.258;2022-10-28T02:35:52;49.38;;;29.30;;
44662;SDS011;30381;52.754;18.258;2022-10-28T02:38:40;71.33;;;31.57;;
44662;SDS011;30381;52.754;18.258;2022-10-28T02:41:13;63.08;;;32.78;;
44662;SDS011;30381;52.754;18.258;2022-10-28T02:43:52;63.25;;;32.03;;
44662;SDS011;30381;52.754;18.258;2022-10-28T02:46:22;53.38;;;32.13;;
44662;SDS011;30381;52.754;18.258;2022-10-28T02:48:56;64.53;;;31.65;;
44662;SDS011;30381;52.754;18.258;2022-10-28T02:51:30;55.95;;;31.23;;
44662;SDS011;30381;52.754;18.258;2022-10-28T02:59:27;67.50;;;34.40;;
44662;SDS011;30381;52.754;18.258;2022-10-28T03:01:54;88.37;;;36.33;;
44662;SDS011;30381;52.754;18.258;2022-10-28T03:04:22;70.65;;;39.80;;
44662;SDS011;30381;52.754;18.258;2022-10-28T03:06:49;66.02;;;38.35;;
44662;SDS011;30381;52.754;18.258;2022-10-28T03:09:16;78.47;;;42.50;;
44662;SDS011;30381;52.754;18.258;2022-10-28T03:11:42;84.65;;;43.48;;
44662;SDS011;30381;52.754;18.258;2022-10-28T03:14:08;147.65;;;47.50;;
44662;SDS011;30381;52.754;18.258;2022-10-28T03:16:34;110.08;;;44.98;;
44662;SDS011;30381;52.754;18.258;2022-10-28T03:19:01;89.55;;;44.30;;
44662;SDS011;30381;52.754;18.258;2022-10-28T03:21:27;95.53;;;44.85;;
44662;SDS011;30381;52.754;18.258;2022-10-28T03:23:53;80.15;;;43.48;;
44662;SDS011;30381;52.754;18.258;2022-10-28T03:26:20;121.17;;;44.98;;
44662;SDS011;30381;52.754;18.258;2022-10-28T03:28:47;105.00;;;46.37;;
44662;SDS011;30381;52.754;18.258;2022-10-28T03:31:13;117.20;;;46.30;;
44662;SDS011;30381;52.754;18.258;2022-10-28T03:33:40;115.17;;;49.60;;
44662;SDS011;30381;52.754;18.258;2022-10-28T03:36:06;107.87;;;47.75;;
44662;SDS011;30381;52.754;18.258;2022-10-28T03:38:33;95.70;;;50.60;;
44662;SDS011;30381;52.754;18.258;2022-10-28T03:40:59;148.15;;;50.17;;
44662;SDS011;30381;52.754;18.258;2022-10-28T03:43:26;116.30;;;51.70;;
44662;SDS011;30381;52.754;18.258;2022-10-28T03:45:52;107.37;;;50.30;;
44662;SDS011;30381;52.754;18.258;2022-10-28T03:48:18;93.65;;;49.63;;
44662;SDS011;30381;52.754;18.258;2022-10-28T03:50:44;93.03;;;47.55;;
44662;SDS011;30381;52.754;18.258;2022-10-28T03:53:11;84.10;;;48.05;;
44662;SDS011;30381;52.754;18.258;2022-10-28T03:55:37;81.45;;;46.15;;
44662;SDS011;30381;52.754;18.258;2022-10-28T03:58:04;78.47;;;49.15;;
44662;SDS011;30381;52.754;18.258;2022-10-28T04:00:30;84.22;;;48.17;;
44662;SDS011;30381;52.754;18.258;2022-10-28T04:02:56;71.65;;;46.58;;
44662;SDS011;30381;52.754;18.258;2022-10-28T04:05:23;91.28;;;48.52;;
44662;SDS011;30381;52.754;18.258;2022-10-28T04:07:49;77.82;;;49.23;;
44662;SDS011;30381;52.754;18.258;2022-10-28T04:10:18;73.78;;;46.33;;
44662;SDS011;30381;52.754;18.258;2022-10-28T04:12:44;70.75;;;48.28;;
44662;SDS011;30381;52.754;18.258;2022-10-28T04:15:10;79.25;;;48.05;;
44662;SDS011;30381;52.754;18.258;2022-10-28T04:17:36;69.80;;;45.35;;
44662;SDS011;30381;52.754;18.258;2022-10-28T04:20:03;69.87;;;47.40;;
44662;SDS011;30381;52.754;18.258;2022-10-28T04:22:30;66.33;;;46.08;;
44662;SDS011;30381;52.754;18.258;2022-10-28T04:24:56;63.60;;;45.70;;
44662;SDS011;30381;52.754;18.258;2022-10-28T04:27:23;68.78;;;46.00;;
44662;SDS011;30381;52.754;18.258;2022-10-28T04:29:49;63.10;;;46.00;;
44662;SDS011;30381;52.754;18.258;2022-10-28T04:32:15;65.60;;;46.65;;
44662;SDS011;30381;52.754;18.258;2022-10-28T04:34:42;71.85;;;50.15;;
44662;SDS011;30381;52.754;18.258;2022-10-28T04:37:08;91.95;;;59.38;;
44662;SDS011;30381;52.754;18.258;2022-10-28T04:39:35;111.47;;;72.32;;
44662;SDS011;30381;52.754;18.258;2022-10-28T04:42:01;101.58;;;65.90;;
44662;SDS011;30381;52.754;18.258;2022-10-28T04:44:27;95.50;;;60.33;;
44662;SDS011;30381;52.754;18.258;2022-10-28T04:46:56;100.75;;;61.30;;
44662;SDS011;30381;52.754;18.258;2022-10-28T04:49:22;88.22;;;54.88;;
44662;SDS011;30381;52.754;18.258;2022-10-28T04:51:49;76.33;;;50.05;;
44662;SDS011;30381;52.754;18.258;2022-10-28T04:54:15;74.75;;;49.95;;
44662;SDS011;30381;52.754;18.258;2022-10-28T04:56:41;92.15;;;56.58;;
44662;SDS011;30381;52.754;18.258;2022-10-28T04:59:08;98.97;;;56.50;;
44662;SDS011;30381;52.754;18.258;2022-10-28T05:01:34;95.83;;;55.98;;
44662;SDS011;30381;52.754;18.258;2022-10-28T05:04:01;95.92;;;54.03;;
44662;SDS011;30381;52.754;18.258;2022-10-28T05:06:28;86.82;;;49.98;;
44662;SDS011;30381;52.754;18.258;2022-10-28T05:08:55;84.85;;;50.65;;
44662;SDS011;30381;52.754;18.258;2022-10-28T05:11:21;88.87;;;49.58;;
44662;SDS011;30381;52.754;18.258;2022-10-28T05:13:48;75.95;;;49.25;;
44662;SDS011;30381;52.754;18.258;2022-10-28T05:16:16;85.92;;;47.48;;
44662;SDS011;30381;52.754;18.258;2022-10-28T05:18:42;91.35;;;52.13;;
44662;SDS011;30381;52.754;18.258;2022-10-28T05:21:09;106.83;;;61.15;;
44662;SDS011;30381;52.754;18.258;2022-10-28T05:23:35;96.47;;;60.33;;
44662;SDS011;30381;52.754;18.258;2022-10-28T05:26:02;85.62;;;54.83;;
44662;SDS011;30381;52.754;18.258;2022-10-28T05:28:29;76.55;;;51.37;;
44662;SDS011;30381;52.754;18.258;2022-10-28T05:30:55;71.85;;;48.50;;
44662;SDS011;30381;52.754;18.258;2022-10-28T05:33:21;72.10;;;48.30;;
44662;SDS011;30381;52.754;18.258;2022-10-28T05:35:48;72.12;;;47.30;;
44662;SDS011;30381;52.754;18.258;2022-10-28T05:38:15;66.37;;;45.03;;
44662;SDS011;30381;52.754;18.258;2022-10-28T05:40:42;71.77;;;47.88;;
44662;SDS011;30381;52.754;18.258;2022-10-28T05:43:08;71.70;;;46.98;;
44662;SDS011;30381;52.754;18.258;2022-10-28T05:45:35;74.85;;;47.73;;
44662;SDS011;30381;52.754;18.258;2022-10-28T05:48:02;88.65;;;52.23;;
44662;SDS011;30381;52.754;18.258;2022-10-28T05:50:29;83.15;;;50.90;;
44662;SDS011;30381;52.754;18.258;2022-10-28T05:52:56;80.40;;;52.23;;
44662;SDS011;30381;52.754;18.258;2022-10-28T05:55:24;75.75;;;51.18;;
44662;SDS011;30381;52.754;18.258;2022-10-28T05:57:52;77.32;;;49.25;;
44662;SDS011;30381;52.754;18.258;2022-10-28T06:00:21;73.78;;;47.23;;
44662;SDS011;30381;52.754;18.258;2022-10-28T06:02:50;75.42;;;50.48;;
44662;SDS011;30381;52.754;18.258;2022-10-28T06:05:16;80.97;;;52.50;;
44662;SDS011;30381;52.754;18.258;2022-10-28T06:07:46;87.08;;;57.05;;
44662;SDS011;30381;52.754;18.258;2022-10-28T06:10:12;105.78;;;64.80;;
44662;SDS011;30381;52.754;18.258;2022-10-28T06:12:42;93.07;;;62.35;;
44662;SDS011;30381;52.754;18.258;2022-10-28T06:15:12;104.85;;;64.17;;
44662;SDS011;30381;52.754;18.258;2022-10-28T06:21:07;85.10;;;52.30;;
44662;SDS011;30381;52.754;18.258;2022-10-28T06:23:35;87.02;;;51.28;;
44662;SDS011;30381;52.754;18.258;2022-10-28T06:26:04;86.08;;;53.80;;
44662;SDS011;30381;52.754;18.258;2022-10-28T06:28:33;92.95;;;64.05;;
44662;SDS011;30381;52.754;18.258;2022-10-28T06:31:06;95.30;;;67.70;;
44662;SDS011;30381;52.754;18.258;2022-10-28T06:36:00;93.50;;;63.60;;
44662;SDS011;30381;52.754;18.258;2022-10-28T06:38:27;91.78;;;62.38;;
44662;SDS011;30381;52.754;18.258;2022-10-28T06:40:56;100.67;;;66.20;;
44662;SDS011;30381;52.754;18.258;2022-10-28T06:43:26;104.25;;;69.32;;
44662;SDS011;30381;52.754;18.258;2022-10-28T06:46:00;105.83;;;67.25;;
44662;SDS011;30381;52.754;18.258;2022-10-28T06:48:28;104.63;;;66.07;;
44662;SDS011;30381;52.754;18.258;2022-10-28T06:50:56;104.75;;;67.20;;
44662;SDS011;30381;52.754;18.258;2022-10-28T06:53:25;90.20;;;58.83;;
44662;SDS011;30381;52.754;18.258;2022-10-28T06:55:54;84.13;;;54.95;;
44662;SDS011;30381;52.754;18.258;2022-10-28T06:58:23;68.47;;;46.05;;
44662;SDS011;30381;52.754;18.258;2022-10-28T07:00:54;62.98;;;43.95;;
44662;SDS011;30381;52.754;18.258;2022-10-28T07:03:20;59.75;;;42.80;;
44662;SDS011;30381;52.754;18.258;2022-10-28T07:05:47;54.90;;;40.92;;
44662;SDS011;30381;52.754;18.258;2022-10-28T07:08:16;60.15;;;42.50;;
44662;SDS011;30381;52.754;18.258;2022-10-28T07:10:42;64.95;;;44.30;;
44662;SDS011;30381;52.754;18.258;2022-10-28T07:13:08;71.42;;;49.48;;
44662;SDS011;30381;52.754;18.258;2022-10-28T07:15:35;75.25;;;50.83;;
44662;SDS011;30381;52.754;18.258;2022-10-28T07:18:01;81.32;;;54.75;;
44662;SDS011;30381;52.754;18.258;2022-10-28T07:20:28;69.03;;;53.45;;
44662;SDS011;30381;52.754;18.258;2022-10-28T07:23:00;73.65;;;52.25;;
44662;SDS011;30381;52.754;18.258;2022-10-28T07:25:26;65.62;;;46.92;;
44662;SDS011;30381;52.754;18.258;2022-10-28T07:27:57;61.40;;;46.48;;
44662;SDS011;30381;52.754;18.258;2022-10-28T07:30:25;62.48;;;45.28;;
44662;SDS011;30381;52.754;18.258;2022-10-28T07:32:53;61.63;;;43.55;;
44662;SDS011;30381;52.754;18.258;2022-10-28T07:35:19;69.62;;;45.88;;
44662;SDS011;30381;52.754;18.258;2022-10-28T07:37:46;61.48;;;42.45;;
44662;SDS011;30381;52.754;18.258;2022-10-28T07:40:13;57.50;;;42.20;;
44662;SDS011;30381;52.754;18.258;2022-10-28T07:42:39;63.05;;;44.73;;
44662;SDS011;30381;52.754;18.258;2022-10-28T07:45:06;65.00;;;45.35;;
44662;SDS011;30381;52.754;18.258;2022-10-28T07:47:33;62.60;;;45.98;;
44662;SDS011;30381;52.754;18.258;2022-10-28T07:50:00;61.08;;;41.05;;
44662;SDS011;30381;52.754;18.258;2022-10-28T07:52:26;56.10;;;40.43;;
44662;SDS011;30381;52.754;18.258;2022-10-28T07:54:52;55.28;;;38.65;;
44662;SDS011;30381;52.754;18.258;2022-10-28T07:57:20;50.00;;;37.35;;
44662;SDS011;30381;52.754;18.258;2022-10-28T07:59:46;49.42;;;35.52;;
44662;SDS011;30381;52.754;18.258;2022-10-28T08:02:17;45.65;;;34.83;;
44662;SDS011;30381;52.754;18.258;2022-10-28T08:04:47;46.33;;;35.20;;
44662;SDS011;30381;52.754;18.258;2022-10-28T08:07:13;46.65;;;34.73;;
44662;SDS011;30381;52.754;18.258;2022-10-28T08:09:41;48.78;;;34.85;;
44662;SDS011;30381;52.754;18.258;2022-10-28T08:12:07;45.40;;;33.23;;
44662;SDS011;30381;52.754;18.258;2022-10-28T08:14:39;44.65;;;32.53;;
44662;SDS011;30381;52.754;18.258;2022-10-28T08:17:06;46.28;;;33.70;;
44662;SDS011;30381;52.754;18.258;2022-10-28T08:19:33;49.93;;;37.40;;
44662;SDS011;30381;52.754;18.258;2022-10-28T08:21:59;46.30;;;35.58;;
44662;SDS011;30381;52.754;18.258;2022-10-28T08:24:26;50.33;;;34.45;;
44662;SDS011;30381;52.754;18.258;2022-10-28T08:26:53;42.85;;;31.82;;
44662;SDS011;30381;52.754;18.258;2022-10-28T08:29:19;43.55;;;31.93;;
44662;SDS011;30381;52.754;18.258;2022-10-28T08:31:46;50.10;;;33.13;;
44662;SDS011;30381;52.754;18.258;2022-10-28T08:34:12;43.45;;;30.45;;
44662;SDS011;30381;52.754;18.258;2022-10-28T08:36:40;42.17;;;30.85;;
44662;SDS011;30381;52.754;18.258;2022-10-28T08:39:07;40.75;;;30.80;;
44662;SDS011;30381;52.754;18.258;2022-10-28T08:41:42;41.98;;;30.45;;
44662;SDS011;30381;52.754;18.258;2022-10-28T08:44:55;38.73;;;29.60;;
44662;SDS011;30381;52.754;18.258;2022-10-28T08:50:12;40.10;;;29.72;;
44662;SDS011;30381;52.754;18.258;2022-10-28T08:55:34;36.63;;;26.80;;
44662;SDS011;30381;52.754;18.258;2022-10-28T09:00:54;39.48;;;26.37;;
44662;SDS011;30381;52.754;18.258;2022-10-28T09:03:24;41.65;;;27.42;;
44662;SDS011;30381;52.754;18.258;2022-10-28T09:06:07;48.52;;;27.77;;
44662;SDS011;30381;52.754;18.258;2022-10-28T09:08:35;45.65;;;27.22;;
44662;SDS011;30381;52.754;18.258;2022-10-28T09:17:09;28.60;;;18.77;;
44662;SDS011;30381;52.754;18.258;2022-10-28T09:19:49;29.67;;;20.25;;
44662;SDS011;30381;52.754;18.258;2022-10-28T09:22:55;31.23;;;18.35;;
44662;SDS011;30381;52.754;18.258;2022-10-28T09:25:45;26.95;;;18.37;;
44662;SDS011;30381;52.754;18.258;2022-10-28T09:28:49;31.20;;;19.55;;
44662;SDS011;30381;52.754;18.258;2022-10-28T09:31:16;35.00;;;21.00;;
44662;SDS011;30381;52.754;18.258;2022-10-28T09:37:16;44.25;;;23.80;;
44662;SDS011;30381;52.754;18.258;2022-10-28T09:39:59;27.90;;;18.87;;
44662;SDS011;30381;52.754;18.258;2022-10-28T09:42:40;26.87;;;18.95;;
44662;SDS011;30381;52.754;18.258;2022-10-28T09:45:47;24.35;;;17.15;;
44662;SDS011;30381;52.754;18.258;2022-10-28T10:22:43;25.00;;;15.45;;
44662;SDS011;30381;52.754;18.258;2022-10-28T10:28:00;20.92;;;15.15;;
44662;SDS011;30381;52.754;18.258;2022-10-28T10:30:48;21.65;;;15.03;;
44662;SDS011;30381;52.754;18.258;2022-10-28T10:33:20;26.52;;;15.93;;
44662;SDS011;30381;52.754;18.258;2022-10-28T10:36:18;26.77;;;16.35;;
44662;SDS011;30381;52.754;18.258;2022-10-28T10:39:15;22.17;;;16.20;;
44662;SDS011;30381;52.754;18.258;2022-10-28T10:42:15;22.95;;;15.10;;
44662;SDS011;30381;52.754;18.258;2022-10-28T10:44:45;25.62;;;14.98;;
44662;SDS011;30381;52.754;18.258;2022-10-28T10:47:15;23.80;;;16.40;;
44662;SDS011;30381;52.754;18.258;2022-10-28T10:50:22;24.27;;;17.57;;
44662;SDS011;30381;52.754;18.258;2022-10-28T10:52:55;27.60;;;15.95;;
44662;SDS011;30381;52.754;18.258;2022-10-28T10:55:43;23.38;;;13.83;;
44662;SDS011;30381;52.754;18.258;2022-10-28T10:58:20;22.67;;;14.38;;
44662;SDS011;30381;52.754;18.258;2022-10-28T11:00:46;25.25;;;15.83;;
44662;SDS011;30381;52.754;18.258;2022-10-28T11:03:27;21.75;;;13.55;;
44662;SDS011;30381;52.754;18.258;2022-10-28T11:05:59;22.17;;;13.95;;
44662;SDS011;30381;52.754;18.258;2022-10-28T11:08:46;20.32;;;13.78;;
44662;SDS011;30381;52.754;18.258;2022-10-28T11:16:54;20.70;;;13.72;;
44662;SDS011;30381;52.754;18.258;2022-10-28T11:22:08;24.45;;;12.43;;
44662;SDS011;30381;52.754;18.258;2022-10-28T11:27:32;23.07;;;13.85;;
44662;SDS011;30381;52.754;18.258;2022-10-28T11:30:36;23.47;;;13.88;;
44662;SDS011;30381;52.754;18.258;2022-10-28T11:33:24;24.18;;;13.55;;
44662;SDS011;30381;52.754;18.258;2022-10-28T11:36:42;20.52;;;13.65;;
44662;SDS011;30381;52.754;18.258;2022-10-28T11:39:32;24.45;;;14.70;;
44662;SDS011;30381;52.754;18.258;2022-10-28T11:45:22;30.48;;;15.18;;
44662;SDS011;30381;52.754;18.258;2022-10-28T11:53:31;24.45;;;14.33;;
44662;SDS011;30381;52.754;18.258;2022-10-28T12:05:17;25.70;;;17.62;;
44662;SDS011;30381;52.754;18.258;2022-10-28T12:08:09;23.98;;;16.50;;
44662;SDS011;30381;52.754;18.258;2022-10-28T12:10:52;26.75;;;16.57;;
44662;SDS011;30381;52.754;18.258;2022-10-28T12:24:47;28.62;;;18.27;;
44662;SDS011;30381;52.754;18.258;2022-10-28T12:27:18;29.18;;;18.73;;
44662;SDS011;30381;52.754;18.258;2022-10-28T12:29:52;26.73;;;17.75;;
44662;SDS011;30381;52.754;18.258;2022-10-28T12:38:39;25.08;;;17.12;;
44662;SDS011;30381;52.754;18.258;2022-10-28T12:41:25;24.70;;;14.95;;
44662;SDS011;30381;52.754;18.258;2022-10-28T12:44:15;22.25;;;15.75;;
44662;SDS011;30381;52.754;18.258;2022-10-28T13:00:59;29.72;;;17.77;;
44662;SDS011;30381;52.754;18.258;2022-10-28T13:03:29;26.55;;;17.67;;
44662;SDS011;30381;52.754;18.258;2022-10-28T13:06:00;27.95;;;17.85;;
44662;SDS011;30381;52.754;18.258;2022-10-28T13:08:58;27.98;;;17.30;;
44662;SDS011;30381;52.754;18.258;2022-10-28T13:21:04;33.45;;;20.08;;
44662;SDS011;30381;52.754;18.258;2022-10-28T13:23:52;37.50;;;21.82;;
44662;SDS011;30381;52.754;18.258;2022-10-28T13:27:01;34.50;;;21.48;;
44662;SDS011;30381;52.754;18.258;2022-10-28T13:29:49;33.80;;;20.85;;
44662;SDS011;30381;52.754;18.258;2022-10-28T13:32:38;34.38;;;20.00;;
44662;SDS011;30381;52.754;18.258;2022-10-28T13:35:13;35.48;;;19.10;;
44662;SDS011;30381;52.754;18.258;2022-10-28T13:37:49;34.40;;;19.52;;
44662;SDS011;30381;52.754;18.258;2022-10-28T13:42:59;48.45;;;24.00;;
44662;SDS011;30381;52.754;18.258;2022-10-28T13:45:46;35.60;;;22.10;;
44662;SDS011;30381;52.754;18.258;2022-10-28T13:53:59;32.38;;;17.85;;
44662;SDS011;30381;52.754;18.258;2022-10-28T13:59:02;40.75;;;18.73;;
44662;SDS011;30381;52.754;18.258;2022-10-28T14:01:47;37.35;;;18.67;;
44662;SDS011;30381;52.754;18.258;2022-10-28T14:04:26;32.80;;;18.48;;
44662;SDS011;30381;52.754;18.258;2022-10-28T14:07:00;35.80;;;18.95;;
44662;SDS011;30381;52.754;18.258;2022-10-28T14:09:32;38.28;;;19.77;;
44662;SDS011;30381;52.754;18.258;2022-10-28T14:15:04;25.45;;;16.80;;
44662;SDS011;30381;52.754;18.258;2022-10-28T14:17:50;24.85;;;15.98;;
44662;SDS011;30381;52.754;18.258;2022-10-28T14:42:32;30.65;;;18.60;;
44662;SDS011;30381;52.754;18.258;2022-10-28T14:45:14;26.52;;;17.00;;
44662;SDS011;30381;52.754;18.258;2022-10-28T14:50:44;37.70;;;22.82;;
44662;SDS011;30381;52.754;18.258;2022-10-28T14:53:32;32.00;;;20.37;;
44662;SDS011;30381;52.754;18.258;2022-10-28T14:56:08;28.20;;;17.77;;
44662;SDS011;30381;52.754;18.258;2022-10-28T14:58:38;29.10;;;18.73;;
44662;SDS011;30381;52.754;18.258;2022-10-28T15:03:44;25.32;;;17.07;;
44662;SDS011;30381;52.754;18.258;2022-10-28T15:06:34;30.43;;;19.20;;
44662;SDS011;30381;52.754;18.258;2022-10-28T15:09:27;32.30;;;18.05;;
44662;SDS011;30381;52.754;18.258;2022-10-28T15:14:32;55.58;;;33.63;;
44662;SDS011;30381;52.754;18.258;2022-10-28T15:17:05;42.93;;;26.37;;
44662;SDS011;30381;52.754;18.258;2022-10-28T15:19:40;59.13;;;40.92;;
44662;SDS011;30381;52.754;18.258;2022-10-28T15:22:13;186.65;;;102.32;;
44662;SDS011;30381;52.754;18.258;2022-10-28T15:27:27;358.90;;;237.02;;
44662;SDS011;30381;52.754;18.258;2022-10-28T15:29:59;137.53;;;89.73;;
44662;SDS011;30381;52.754;18.258;2022-10-28T15:32:30;60.03;;;36.08;;
44662;SDS011;30381;52.754;18.258;2022-10-28T15:34:59;45.70;;;26.82;;
44662;SDS011;30381;52.754;18.258;2022-10-28T15:41:13;33.00;;;20.00;;
44662;SDS011;30381;52.754;18.258;2022-10-28T15:43:56;45.88;;;27.27;;
44662;SDS011;30381;52.754;18.258;2022-10-28T15:46:26;40.03;;;23.77;;
44662;SDS011;30381;52.754;18.258;2022-10-28T15:49:37;37.55;;;21.65;;
44662;SDS011;30381;52.754;18.258;2022-10-28T15:54:58;38.98;;;22.13;;
44662;SDS011;30381;52.754;18.258;2022-10-28T15:57:50;38.98;;;23.05;;
44662;SDS011;30381;52.754;18.258;2022-10-28T16:47:55;74.10;;;34.65;;
44662;SDS011;30381;52.754;18.258;2022-10-28T16:50:24;68.02;;;33.48;;
44662;SDS011;30381;52.754;18.258;2022-10-28T16:52:58;78.78;;;34.60;;
44662;SDS011;30381;52.754;18.258;2022-10-28T16:55:27;69.17;;;34.73;;
44662;SDS011;30381;52.754;18.258;2022-10-28T16:57:54;60.28;;;31.30;;
44662;SDS011;30381;52.754;18.258;2022-10-28T17:00:20;67.85;;;30.95;;
44662;SDS011;30381;52.754;18.258;2022-10-28T17:02:49;51.13;;;26.77;;
44662;SDS011;30381;52.754;18.258;2022-10-28T17:05:21;44.00;;;24.75;;
44662;SDS011;30381;52.754;18.258;2022-10-28T17:07:51;32.75;;;21.77;;
44662;SDS011;30381;52.754;18.258;2022-10-28T17:10:38;36.20;;;23.12;;
44662;SDS011;30381;52.754;18.258;2022-10-28T17:13:12;34.75;;;21.82;;
44662;SDS011;30381;52.754;18.258;2022-10-28T17:15:41;37.55;;;21.95;;
44662;SDS011;30381;52.754;18.258;2022-10-28T17:18:10;38.83;;;22.93;;
44662;SDS011;30381;52.754;18.258;2022-10-28T17:20:39;47.55;;;27.87;;
44662;SDS011;30381;52.754;18.258;2022-10-28T17:23:06;46.95;;;26.05;;
44662;SDS011;30381;52.754;18.258;2022-10-28T17:25:32;41.40;;;22.93;;
44662;SDS011;30381;52.754;18.258;2022-10-28T17:28:17;39.55;;;21.80;;
44662;SDS011;30381;52.754;18.258;2022-10-28T17:31:28;42.13;;;23.25;;
44662;SDS011;30381;52.754;18.258;2022-10-28T17:33:36;37.17;;;23.07;;
44662;SDS011;30381;52.754;18.258;2022-10-28T17:36:08;37.25;;;22.13;;
44662;SDS011;30381;52.754;18.258;2022-10-28T17:38:58;36.15;;;22.77;;
44662;SDS011;30381;52.754;18.258;2022-10-28T17:41:31;37.00;;;23.45;;
44662;SDS011;30381;52.754;18.258;2022-10-28T17:44:03;36.77;;;22.77;;
44662;SDS011;30381;52.754;18.258;2022-10-28T17:46:33;35.63;;;22.85;;
44662;SDS011;30381;52.754;18.258;2022-10-28T17:49:03;33.10;;;23.02;;
44662;SDS011;30381;52.754;18.258;2022-10-28T17:51:37;41.08;;;24.15;;
44662;SDS011;30381;52.754;18.258;2022-10-28T17:54:07;44.45;;;25.95;;
44662;SDS011;30381;52.754;18.258;2022-10-28T17:56:33;41.42;;;25.77;;
44662;SDS011;30381;52.754;18.258;2022-10-28T17:59:04;38.23;;;25.05;;
44662;SDS011;30381;52.754;18.258;2022-10-28T18:01:50;36.38;;;23.70;;
44662;SDS011;30381;52.754;18.258;2022-10-28T18:04:39;48.48;;;26.62;;
44662;SDS011;30381;52.754;18.258;2022-10-28T18:07:09;64.30;;;30.10;;
44662;SDS011;30381;52.754;18.258;2022-10-28T18:09:46;56.90;;;28.98;;
44662;SDS011;30381;52.754;18.258;2022-10-28T18:12:13;53.35;;;28.00;;
44662;SDS011;30381;52.754;18.258;2022-10-28T18:14:44;51.40;;;25.77;;
44662;SDS011;30381;52.754;18.258;2022-10-28T18:17:15;56.85;;;27.77;;
44662;SDS011;30381;52.754;18.258;2022-10-28T18:19:49;69.47;;;30.48;;
44662;SDS011;30381;52.754;18.258;2022-10-28T18:22:23;77.17;;;31.90;;
44662;SDS011;30381;52.754;18.258;2022-10-28T18:24:55;70.57;;;32.20;;
44662;SDS011;30381;52.754;18.258;2022-10-28T18:27:23;79.12;;;33.33;;
44662;SDS011;30381;52.754;18.258;2022-10-28T18:29:51;69.27;;;32.30;;
44662;SDS011;30381;52.754;18.258;2022-10-28T18:32:23;61.60;;;28.70;;
44662;SDS011;30381;52.754;18.258;2022-10-28T18:34:53;41.25;;;23.18;;
44662;SDS011;30381;52.754;18.258;2022-10-28T18:37:22;38.78;;;22.48;;
44662;SDS011;30381;52.754;18.258;2022-10-28T18:39:52;39.92;;;23.30;;
44662;SDS011;30381;52.754;18.258;2022-10-28T18:42:22;39.78;;;23.45;;
44662;SDS011;30381;52.754;18.258;2022-10-28T18:45:14;36.98;;;22.25;;
44662;SDS011;30381;52.754;18.258;2022-10-28T18:48:04;35.50;;;23.10;;
44662;SDS011;30381;52.754;18.258;2022-10-28T18:53:21;41.75;;;23.47;;
44662;SDS011;30381;52.754;18.258;2022-10-28T18:56:15;36.15;;;22.42;;
44662;SDS011;30381;52.754;18.258;2022-10-28T18:58:45;39.48;;;24.35;;
44662;SDS011;30381;52.754;18.258;2022-10-28T19:01:18;36.83;;;23.18;;
44662;SDS011;30381;52.754;18.258;2022-10-28T19:03:52;36.42;;;22.75;;
44662;SDS011;30381;52.754;18.258;2022-10-28T19:06:46;38.70;;;23.75;;
44662;SDS011;30381;52.754;18.258;2022-10-28T19:09:30;48.17;;;25.85;;
44662;SDS011;30381;52.754;18.258;2022-10-28T19:11:58;58.75;;;27.00;;